This is the latest recevied weather packets stored in our database for station/object OK2ZI. If no packets are shown the sender has not sent any weather packets the latest 10 day(s).
| Time | Temp. | Humidity | Pressure | Rain* | Wind** | Luminosity | Snow |
|---|---|---|---|---|---|---|---|
| 1778189415 | 12.78° C | 69% | 1012 hPa | 0 mm | - | - | - |
| 1778187845 | 12.78° C | 68% | 1012 hPa | 0 mm | - | - | - |
| 1778187127 | 12.78° C | 67% | 1012 hPa | 0 mm | - | - | - |
| 1778187010 | 12.78° C | 67% | 1012 hPa | 0 mm | - | - | - |
| 1778186166 | 13.33° C | 66% | 1012 hPa | 0 mm | - | - | - |
| 1778186047 | 13.33° C | 66% | 1012 hPa | 0 mm | - | - | - |
| 1778185326 | 13.33° C | 65% | 1012 hPa | 0 mm | - | - | - |
| 1778184246 | 12.22° C | 70% | 1012 hPa | 0 mm | - | - | - |
| 1778183410 | 11.67° C | 71% | 1011 hPa | 0 mm | - | - | - |
| 1778183286 | 11.67° C | 72% | 1011 hPa | 0 mm | - | - | - |
| 1778182687 | 11.67° C | 70% | 1011 hPa | 0 mm | - | - | - |
| 1778182447 | 11.67° C | 69% | 1011 hPa | 0 mm | - | - | - |
| 1778182215 | 11.67° C | 69% | 1011 hPa | 0 mm | - | - | - |
| 1778181726 | 11.11° C | 71% | 1011 hPa | 0 mm | - | - | - |
| 1778180420 | 11.11° C | 75% | 1011 hPa | 0 mm | - | - | - |
| 1778180167 | 11.11° C | 76% | 1011 hPa | 0 mm | - | - | - |
| 1778179447 | 10.56° C | 80% | 1010 hPa | 0 mm | - | - | - |
| 1778178727 | 10° C | 80% | 1010 hPa | 0 mm | - | - | - |
| 1778178615 | 10.56° C | 80% | 1010 hPa | 0 mm | - | - | - |
| 1778178247 | 10.56° C | 80% | 1010 hPa | 0 mm | - | - | - |
| 1778177531 | 11.11° C | 78% | 1010 hPa | 0 mm | - | - | - |
| 1778177289 | 11.67° C | 77% | 1010 hPa | 0 mm | - | - | - |
| 1778177048 | 11.67° C | 77% | 1010 hPa | 0 mm | - | - | - |
| 1778176568 | 12.78° C | 72% | 1010 hPa | 0 mm | - | - | - |
| 1778175368 | 13.89° C | 65% | 1009 hPa | 0 mm | - | - | - |
* Rain latest hour (hover to see other rain measurements)
** Current wind speed in m/s (hover to see current wind gust speed)